createdAt,value
2017-12-29T00:00:29.724Z,0
2017-12-29T00:01:10.313Z,0
2017-12-29T00:01:50.837Z,0
2017-12-29T00:02:31.391Z,0
2017-12-29T00:03:11.931Z,0
2017-12-29T00:03:52.497Z,0
2017-12-29T00:04:33.058Z,0
2017-12-29T00:05:13.573Z,0
2017-12-29T00:05:54.121Z,0
2017-12-29T00:06:34.657Z,0
2017-12-29T00:07:15.221Z,0
2017-12-29T00:07:55.774Z,0
2017-12-29T00:08:36.338Z,0
2017-12-29T00:09:16.961Z,0
2017-12-29T00:09:57.520Z,0
2017-12-29T00:10:38.050Z,0
2017-12-29T00:11:18.639Z,0
2017-12-29T00:11:59.159Z,0
2017-12-29T00:12:39.737Z,0
2017-12-29T00:13:20.290Z,0
2017-12-29T00:14:00.856Z,0
2017-12-29T00:14:41.433Z,0
2017-12-29T00:15:21.980Z,0
2017-12-29T00:16:02.535Z,0
2017-12-29T00:16:43.086Z,0
2017-12-29T00:17:23.657Z,0
2017-12-29T00:18:04.241Z,0
2017-12-29T00:18:44.836Z,0
2017-12-29T00:19:25.434Z,0
2017-12-29T00:20:05.993Z,0
2017-12-29T00:20:46.596Z,0
2017-12-29T00:21:27.151Z,0
2017-12-29T00:22:07.725Z,0
2017-12-29T00:22:48.319Z,0
2017-12-29T00:23:28.870Z,0
2017-12-29T00:24:09.464Z,0
2017-12-29T00:24:50.071Z,0
2017-12-29T00:25:30.619Z,0
2017-12-29T00:26:11.228Z,0
2017-12-29T00:26:51.769Z,0
2017-12-29T00:27:32.285Z,0
2017-12-29T00:28:12.822Z,0
2017-12-29T00:28:53.379Z,0
2017-12-29T00:29:33.951Z,0
2017-12-29T00:30:14.505Z,0
2017-12-29T00:30:55.043Z,0
2017-12-29T00:31:35.617Z,0
2017-12-29T00:32:16.186Z,0
2017-12-29T00:32:56.787Z,0
2017-12-29T00:33:37.381Z,0
2017-12-29T00:34:17.932Z,0
2017-12-29T00:34:58.498Z,0
2017-12-29T00:35:39.040Z,0
2017-12-29T00:36:19.592Z,0
2017-12-29T00:37:00.131Z,0
2017-12-29T00:37:40.670Z,0
2017-12-29T00:38:21.211Z,0
2017-12-29T00:39:01.756Z,0
2017-12-29T00:39:42.322Z,0
2017-12-29T00:40:22.856Z,0
2017-12-29T00:41:03.461Z,0
2017-12-29T00:41:44.065Z,0
2017-12-29T00:42:24.650Z,0
2017-12-29T00:43:05.227Z,0
2017-12-29T00:43:45.793Z,0
2017-12-29T00:44:26.389Z,0
2017-12-29T00:45:06.955Z,0
2017-12-29T00:45:47.514Z,0
2017-12-29T00:46:28.070Z,0
2017-12-29T00:47:08.648Z,0
2017-12-29T00:47:49.240Z,0
2017-12-29T00:48:30.775Z,0
2017-12-29T00:49:10.696Z,0
2017-12-29T00:49:51.267Z,0
2017-12-29T00:50:31.839Z,0
2017-12-29T00:51:12.374Z,0
2017-12-29T00:51:52.937Z,0
2017-12-29T00:52:33.501Z,0
2017-12-29T00:53:14.055Z,0
2017-12-29T00:53:54.594Z,0
2017-12-29T00:54:35.132Z,0
2017-12-29T00:55:15.693Z,0
2017-12-29T00:55:56.258Z,0
2017-12-29T00:56:36.837Z,0
2017-12-29T00:57:17.389Z,0
2017-12-29T00:57:57.946Z,0
2017-12-29T00:58:38.487Z,0
2017-12-29T00:59:19.031Z,0
2017-12-29T00:59:59.575Z,0
2017-12-29T01:00:40.130Z,0
2017-12-29T01:01:20.665Z,0
2017-12-29T01:02:01.227Z,0
2017-12-29T01:02:41.851Z,0
2017-12-29T01:03:22.418Z,0
2017-12-29T01:04:02.992Z,0
2017-12-29T01:04:43.535Z,0
2017-12-29T01:05:24.072Z,0
2017-12-29T01:06:04.628Z,0
2017-12-29T01:06:45.182Z,0
2017-12-29T01:07:25.756Z,0
2017-12-29T01:08:06.279Z,0
2017-12-29T01:08:46.832Z,0
2017-12-29T01:09:27.383Z,0
2017-12-29T01:10:07.917Z,0
2017-12-29T01:10:48.466Z,0
2017-12-29T01:11:29.053Z,0
2017-12-29T01:12:09.617Z,0
2017-12-29T01:12:50.163Z,0
2017-12-29T01:13:30.711Z,0
2017-12-29T01:14:11.256Z,0
2017-12-29T01:14:51.837Z,0
2017-12-29T01:15:32.374Z,0
2017-12-29T01:16:12.929Z,0
2017-12-29T01:16:53.491Z,0
2017-12-29T01:17:34.025Z,0
2017-12-29T01:18:14.593Z,0
2017-12-29T01:18:55.144Z,0
2017-12-29T01:19:35.690Z,0
2017-12-29T01:20:16.245Z,0
2017-12-29T01:20:56.826Z,0
2017-12-29T01:21:37.342Z,0
2017-12-29T01:22:17.888Z,0
2017-12-29T01:22:58.442Z,0
2017-12-29T01:23:39.011Z,0
2017-12-29T01:24:19.555Z,0
2017-12-29T01:25:00.108Z,0
2017-12-29T01:25:40.642Z,0
2017-12-29T01:26:21.227Z,0
2017-12-29T01:27:01.781Z,0
2017-12-29T01:27:42.323Z,0
2017-12-29T01:28:22.889Z,0
2017-12-29T01:29:03.400Z,0
2017-12-29T01:29:43.957Z,0
2017-12-29T01:30:24.503Z,0
2017-12-29T01:31:05.042Z,0
2017-12-29T01:31:45.619Z,0
2017-12-29T01:32:26.153Z,0
2017-12-29T01:33:06.717Z,0
2017-12-29T01:33:47.257Z,0
2017-12-29T01:34:27.807Z,0
2017-12-29T01:35:08.344Z,0
2017-12-29T01:35:48.891Z,0
2017-12-29T01:36:29.451Z,0
2017-12-29T01:37:10.023Z,0
2017-12-29T01:37:50.567Z,0
2017-12-29T01:38:31.128Z,0
2017-12-29T01:39:11.672Z,0
2017-12-29T01:39:52.233Z,0
2017-12-29T01:40:32.810Z,0
2017-12-29T01:41:14.284Z,0
2017-12-29T01:41:53.943Z,0
2017-12-29T01:42:34.510Z,0
2017-12-29T01:43:15.091Z,0
2017-12-29T01:43:55.640Z,0
2017-12-29T01:44:36.197Z,0
2017-12-29T01:45:16.743Z,0
2017-12-29T01:45:57.302Z,0
2017-12-29T01:46:37.855Z,0
2017-12-29T01:47:18.389Z,0
2017-12-29T01:47:58.921Z,0
2017-12-29T01:48:39.471Z,0
2017-12-29T01:49:20.035Z,0
2017-12-29T01:50:00.586Z,0
2017-12-29T01:50:41.110Z,0
2017-12-29T01:51:21.673Z,0
2017-12-29T01:52:02.236Z,0
2017-12-29T01:52:42.786Z,0
2017-12-29T01:53:23.331Z,0
2017-12-29T01:54:03.876Z,0
2017-12-29T01:54:44.437Z,0
2017-12-29T01:55:24.997Z,0
2017-12-29T01:56:05.538Z,0
2017-12-29T01:56:46.052Z,0
2017-12-29T01:57:26.681Z,0
2017-12-29T01:58:07.234Z,0
2017-12-29T01:58:47.794Z,0
2017-12-29T01:59:28.341Z,0
2017-12-29T02:00:08.897Z,0
2017-12-29T02:00:49.444Z,0
2017-12-29T02:01:30.007Z,0
2017-12-29T02:02:10.585Z,0
2017-12-29T02:02:51.135Z,0
2017-12-29T02:03:31.699Z,0
2017-12-29T02:04:12.242Z,0
2017-12-29T02:04:52.927Z,0
2017-12-29T02:05:33.433Z,0
2017-12-29T02:06:13.995Z,0
2017-12-29T02:06:54.559Z,0
2017-12-29T02:07:35.128Z,0
2017-12-29T02:08:15.695Z,0
2017-12-29T02:08:56.242Z,0
2017-12-29T02:09:36.831Z,0
2017-12-29T02:10:17.471Z,0
2017-12-29T02:10:57.947Z,0
2017-12-29T02:11:38.560Z,0
2017-12-29T02:12:19.049Z,0
2017-12-29T02:12:59.595Z,0
2017-12-29T02:13:40.155Z,0
2017-12-29T02:14:20.655Z,0
2017-12-29T02:15:01.228Z,0
2017-12-29T02:15:41.763Z,0
2017-12-29T02:16:22.288Z,0
2017-12-29T02:17:02.819Z,0
2017-12-29T02:17:43.348Z,0
2017-12-29T02:18:23.908Z,0
2017-12-29T02:19:04.450Z,0
2017-12-29T02:19:44.996Z,0
2017-12-29T02:20:25.565Z,0
2017-12-29T02:21:06.096Z,0
2017-12-29T02:21:46.663Z,0
2017-12-29T02:22:27.233Z,0
2017-12-29T02:23:07.782Z,0
2017-12-29T02:23:48.323Z,0
2017-12-29T02:24:28.892Z,0
2017-12-29T02:25:09.435Z,0
2017-12-29T02:25:49.989Z,0
2017-12-29T02:26:30.542Z,0
2017-12-29T02:27:11.090Z,0
2017-12-29T02:27:51.665Z,0
2017-12-29T02:28:32.226Z,0
2017-12-29T02:29:12.788Z,0
2017-12-29T02:29:53.359Z,0
2017-12-29T02:30:33.922Z,0
2017-12-29T02:31:14.461Z,0
2017-12-29T02:31:55.048Z,0
2017-12-29T02:32:35.600Z,0
2017-12-29T02:33:16.162Z,0
2017-12-29T02:33:56.683Z,0
2017-12-29T02:34:37.245Z,0
2017-12-29T02:35:17.815Z,0
2017-12-29T02:35:58.335Z,0
2017-12-29T02:36:38.884Z,0
2017-12-29T02:37:19.483Z,0
2017-12-29T02:38:00.005Z,0
2017-12-29T02:38:40.549Z,0
2017-12-29T02:39:21.110Z,0
2017-12-29T02:40:01.691Z,0
2017-12-29T02:40:42.261Z,0
2017-12-29T02:41:22.752Z,0
2017-12-29T02:42:03.312Z,0
2017-12-29T02:42:43.892Z,0
2017-12-29T02:43:24.394Z,0
2017-12-29T02:44:05.037Z,0
2017-12-29T02:44:45.556Z,0
2017-12-29T02:45:26.067Z,0
2017-12-29T02:46:06.694Z,0
2017-12-29T02:46:47.280Z,0
2017-12-29T02:47:27.771Z,0
2017-12-29T02:48:08.273Z,0
2017-12-29T02:48:48.810Z,0
2017-12-29T02:49:29.364Z,0
2017-12-29T02:50:09.918Z,0
2017-12-29T02:50:50.467Z,0
2017-12-29T02:51:31.032Z,0
2017-12-29T02:52:11.582Z,0
2017-12-29T02:52:52.120Z,0
2017-12-29T02:53:32.694Z,0
2017-12-29T02:54:13.245Z,0
2017-12-29T02:54:53.780Z,0
2017-12-29T02:55:34.332Z,0
2017-12-29T02:56:14.888Z,0
2017-12-29T02:56:55.422Z,0
2017-12-29T02:57:35.984Z,0
2017-12-29T02:58:16.496Z,0
2017-12-29T02:58:57.019Z,0
2017-12-29T02:59:37.602Z,0
2017-12-29T03:00:18.116Z,0
2017-12-29T03:00:58.669Z,0
2017-12-29T03:01:39.213Z,0
2017-12-29T03:02:19.774Z,0
2017-12-29T03:03:00.318Z,0
2017-12-29T03:03:40.877Z,0
2017-12-29T03:04:21.424Z,0
2017-12-29T03:05:02.002Z,0
2017-12-29T03:05:43.193Z,0
2017-12-29T03:06:23.756Z,0
2017-12-29T03:07:04.317Z,0
2017-12-29T03:07:44.887Z,0
2017-12-29T03:08:25.411Z,0
2017-12-29T03:09:05.990Z,0
2017-12-29T03:09:46.530Z,0
2017-12-29T03:10:27.084Z,0
2017-12-29T03:11:07.635Z,0
2017-12-29T03:11:48.185Z,0
2017-12-29T03:12:28.748Z,0
2017-12-29T03:13:09.332Z,0
2017-12-29T03:13:49.894Z,0
2017-12-29T03:14:30.430Z,0
2017-12-29T03:15:10.972Z,0
2017-12-29T03:15:51.507Z,0
2017-12-29T03:16:32.077Z,0
2017-12-29T03:17:12.628Z,0
2017-12-29T03:17:53.205Z,0
2017-12-29T03:18:33.719Z,0
2017-12-29T03:19:14.302Z,0
2017-12-29T03:19:54.841Z,0
2017-12-29T03:20:35.384Z,0
2017-12-29T03:21:15.938Z,0
2017-12-29T03:21:56.500Z,0
2017-12-29T03:22:37.034Z,0
2017-12-29T03:23:17.585Z,0
2017-12-29T03:23:58.143Z,0
2017-12-29T03:24:38.681Z,0
2017-12-29T03:25:19.247Z,0
2017-12-29T03:25:59.784Z,0
2017-12-29T03:26:40.347Z,0
2017-12-29T03:27:20.869Z,0
2017-12-29T03:28:01.414Z,0
2017-12-29T03:28:41.969Z,0
2017-12-29T03:29:22.526Z,0
2017-12-29T03:30:03.076Z,0
2017-12-29T03:30:43.624Z,0
2017-12-29T03:31:24.187Z,0
2017-12-29T03:32:04.755Z,0
2017-12-29T03:32:45.287Z,0
2017-12-29T03:33:25.837Z,0
2017-12-29T03:34:06.422Z,0
2017-12-29T03:34:46.985Z,0
2017-12-29T03:35:27.525Z,0
2017-12-29T03:36:08.075Z,0
2017-12-29T03:36:48.618Z,0
2017-12-29T03:37:29.167Z,0
2017-12-29T03:38:09.680Z,0
2017-12-29T03:38:50.236Z,0
2017-12-29T03:39:30.759Z,0
2017-12-29T03:40:11.328Z,0
2017-12-29T03:40:51.929Z,0
2017-12-29T03:41:32.477Z,0
2017-12-29T03:42:12.999Z,0
2017-12-29T03:42:53.520Z,0
2017-12-29T03:43:34.079Z,0
2017-12-29T03:44:14.609Z,0
2017-12-29T03:44:55.156Z,0
2017-12-29T03:45:35.671Z,0
2017-12-29T03:46:16.218Z,0
2017-12-29T03:46:56.766Z,0
2017-12-29T03:47:37.324Z,0
2017-12-29T03:48:17.903Z,0
2017-12-29T03:48:58.443Z,0
2017-12-29T03:49:39.054Z,0
2017-12-29T03:50:20.327Z,0
2017-12-29T03:51:00.347Z,0
2017-12-29T03:51:40.785Z,0
2017-12-29T03:52:21.444Z,0
2017-12-29T03:53:01.916Z,0
2017-12-29T03:53:42.460Z,0
2017-12-29T03:54:22.926Z,0
2017-12-29T03:55:03.478Z,0
2017-12-29T03:55:44.046Z,0
2017-12-29T03:56:24.654Z,0
2017-12-29T03:57:05.110Z,0
2017-12-29T03:57:45.740Z,0
2017-12-29T03:58:26.244Z,0
2017-12-29T03:59:06.854Z,0
2017-12-29T03:59:47.345Z,0
2017-12-29T04:00:27.976Z,0
2017-12-29T04:01:08.571Z,0
2017-12-29T04:01:49.158Z,0
2017-12-29T04:02:29.764Z,0
2017-12-29T04:03:10.327Z,0
2017-12-29T04:03:50.963Z,0
2017-12-29T04:04:31.490Z,0
2017-12-29T04:05:12.058Z,0
2017-12-29T04:05:52.730Z,0
2017-12-29T04:06:33.274Z,0
2017-12-29T04:07:13.802Z,0
2017-12-29T04:07:54.312Z,0
2017-12-29T04:08:34.894Z,0
2017-12-29T04:09:15.386Z,0
2017-12-29T04:09:55.933Z,0
2017-12-29T04:10:36.485Z,0
2017-12-29T04:11:17.061Z,0
2017-12-29T04:11:57.609Z,0
2017-12-29T04:12:38.158Z,0
2017-12-29T04:13:18.721Z,0
2017-12-29T04:13:59.272Z,0
2017-12-29T04:14:39.816Z,0
2017-12-29T04:15:20.375Z,0
2017-12-29T04:16:00.929Z,0
2017-12-29T04:16:41.482Z,0
2017-12-29T04:17:22.026Z,0
2017-12-29T04:18:02.562Z,0
2017-12-29T04:18:43.121Z,0
2017-12-29T04:19:23.677Z,0
2017-12-29T04:20:04.217Z,0
2017-12-29T04:20:44.753Z,0
2017-12-29T04:21:25.292Z,0
2017-12-29T04:22:05.857Z,0
2017-12-29T04:22:46.398Z,0
2017-12-29T04:23:26.952Z,0
2017-12-29T04:24:07.513Z,0
2017-12-29T04:24:48.052Z,0
2017-12-29T04:25:28.598Z,0
2017-12-29T04:26:09.152Z,0
2017-12-29T04:26:49.701Z,0
2017-12-29T04:27:30.249Z,0
2017-12-29T04:28:10.805Z,0
2017-12-29T04:28:51.359Z,0
2017-12-29T04:29:31.912Z,0
2017-12-29T04:30:12.497Z,0
2017-12-29T04:30:53.057Z,0
2017-12-29T04:31:33.604Z,0
2017-12-29T04:32:14.160Z,0
2017-12-29T04:32:54.710Z,0
2017-12-29T04:33:35.256Z,0
2017-12-29T04:34:15.817Z,0
2017-12-29T04:34:56.343Z,0
2017-12-29T04:35:36.888Z,0
2017-12-29T04:36:17.437Z,0
2017-12-29T04:36:57.980Z,0
2017-12-29T04:37:38.522Z,0
2017-12-29T04:38:19.057Z,0
2017-12-29T04:38:59.607Z,0
2017-12-29T04:39:40.158Z,0
2017-12-29T04:40:20.803Z,0
2017-12-29T04:41:01.552Z,0
2017-12-29T04:41:42.076Z,0
2017-12-29T04:42:22.620Z,0
2017-12-29T04:43:03.177Z,0
2017-12-29T04:43:43.785Z,0
2017-12-29T04:44:24.354Z,0
2017-12-29T04:45:05.047Z,0
2017-12-29T04:45:45.547Z,0
2017-12-29T04:46:26.027Z,0
2017-12-29T04:47:06.770Z,0
2017-12-29T04:47:47.239Z,0
2017-12-29T04:48:27.882Z,0
2017-12-29T04:49:08.521Z,0
2017-12-29T04:49:49.046Z,0
2017-12-29T04:50:29.643Z,0
2017-12-29T04:51:10.140Z,0
2017-12-29T04:51:50.704Z,0
2017-12-29T04:52:31.253Z,0
2017-12-29T04:53:11.813Z,0
2017-12-29T04:53:52.382Z,0
2017-12-29T04:54:32.946Z,0
2017-12-29T04:55:13.459Z,0
2017-12-29T04:55:54.014Z,0
2017-12-29T04:56:34.533Z,0
2017-12-29T04:57:15.084Z,0
2017-12-29T04:57:55.629Z,0
2017-12-29T04:58:36.151Z,0
2017-12-29T04:59:16.715Z,0
2017-12-29T04:59:57.216Z,0
2017-12-29T05:00:37.768Z,0
2017-12-29T05:01:18.314Z,0
2017-12-29T05:01:58.874Z,0
2017-12-29T05:02:39.418Z,0
2017-12-29T05:03:19.973Z,0
2017-12-29T05:04:00.517Z,0
2017-12-29T05:04:41.078Z,0
2017-12-29T05:05:21.639Z,0
2017-12-29T05:06:02.178Z,0
2017-12-29T05:06:42.723Z,0
2017-12-29T05:07:23.294Z,0
2017-12-29T05:08:03.829Z,0
2017-12-29T05:08:44.388Z,0
2017-12-29T05:09:24.946Z,0
2017-12-29T05:10:05.503Z,0
2017-12-29T05:10:46.067Z,0
2017-12-29T05:11:26.604Z,0
2017-12-29T05:12:07.159Z,0
2017-12-29T05:12:47.704Z,0
2017-12-29T05:13:28.257Z,0
2017-12-29T05:14:08.806Z,0
2017-12-29T05:14:49.365Z,0
2017-12-29T05:15:29.887Z,0
2017-12-29T05:16:10.438Z,0
2017-12-29T05:16:51.004Z,0
2017-12-29T05:17:31.555Z,0
2017-12-29T05:18:12.111Z,0
2017-12-29T05:18:52.675Z,0
2017-12-29T05:19:33.227Z,0
2017-12-29T05:20:13.772Z,0
2017-12-29T05:20:54.334Z,0
2017-12-29T05:21:34.858Z,0
2017-12-29T05:22:15.428Z,0
2017-12-29T05:22:55.995Z,0
2017-12-29T05:23:36.542Z,0
2017-12-29T05:24:17.075Z,0
2017-12-29T05:24:57.645Z,0
2017-12-29T05:25:38.222Z,0
2017-12-29T05:26:18.773Z,0
2017-12-29T05:26:59.310Z,0
2017-12-29T05:27:39.872Z,0
2017-12-29T05:28:20.426Z,0
2017-12-29T05:29:00.985Z,0
2017-12-29T05:29:41.544Z,0
2017-12-29T05:30:22.090Z,0
2017-12-29T05:31:02.672Z,0
2017-12-29T05:31:43.221Z,0
2017-12-29T05:32:23.765Z,0
2017-12-29T05:33:04.316Z,0
2017-12-29T05:33:44.856Z,0
2017-12-29T05:34:25.433Z,0
2017-12-29T05:35:05.946Z,0
2017-12-29T05:35:46.513Z,0
2017-12-29T05:36:27.067Z,0
2017-12-29T05:37:07.609Z,0
2017-12-29T05:37:48.169Z,0
2017-12-29T05:38:28.697Z,0
2017-12-29T05:39:09.217Z,0
2017-12-29T05:39:49.758Z,0
2017-12-29T05:40:30.410Z,0
2017-12-29T05:41:10.996Z,0
2017-12-29T05:41:51.564Z,0
2017-12-29T05:42:32.178Z,0
2017-12-29T05:43:12.722Z,0
2017-12-29T05:43:53.225Z,0
2017-12-29T05:44:33.779Z,0
2017-12-29T05:45:14.301Z,0
2017-12-29T05:45:54.845Z,0
2017-12-29T05:46:35.398Z,0
2017-12-29T05:47:15.950Z,0
2017-12-29T05:47:56.499Z,0
2017-12-29T05:48:37.039Z,0
2017-12-29T05:49:17.599Z,0
2017-12-29T05:49:58.153Z,0
2017-12-29T05:50:38.684Z,0
2017-12-29T05:51:19.227Z,0
2017-12-29T05:51:59.787Z,0
2017-12-29T05:52:40.337Z,0
2017-12-29T05:53:20.904Z,0
2017-12-29T05:54:01.454Z,0
2017-12-29T05:54:42.012Z,0
2017-12-29T05:55:22.574Z,0
2017-12-29T05:56:03.129Z,0
2017-12-29T05:56:43.659Z,0
2017-12-29T05:57:24.209Z,0
2017-12-29T05:58:04.783Z,0
2017-12-29T05:58:45.340Z,0
2017-12-29T05:59:25.957Z,0
2017-12-29T06:00:07.122Z,0
2017-12-29T06:00:47.680Z,0
2017-12-29T06:01:28.231Z,0
2017-12-29T06:02:08.788Z,0
2017-12-29T06:02:49.332Z,0
2017-12-29T06:03:29.879Z,0
2017-12-29T06:04:10.447Z,0
2017-12-29T06:04:50.973Z,0
2017-12-29T06:05:31.545Z,0
2017-12-29T06:06:12.093Z,0
2017-12-29T06:06:52.654Z,0
2017-12-29T06:07:33.185Z,0
2017-12-29T06:08:13.761Z,0
2017-12-29T06:08:54.301Z,0
2017-12-29T06:09:34.831Z,0
2017-12-29T06:10:15.377Z,0
2017-12-29T06:10:55.985Z,0
2017-12-29T06:11:36.501Z,0
2017-12-29T06:12:17.057Z,0
2017-12-29T06:12:57.599Z,0
2017-12-29T06:13:38.194Z,0
2017-12-29T06:14:18.725Z,0
2017-12-29T06:14:59.284Z,0
2017-12-29T06:15:39.821Z,0
2017-12-29T06:16:20.366Z,0
2017-12-29T06:17:00.915Z,0
2017-12-29T06:17:41.450Z,0
2017-12-29T06:18:22.004Z,0
2017-12-29T06:19:02.553Z,0
2017-12-29T06:19:43.104Z,0
2017-12-29T06:20:23.650Z,0
2017-12-29T06:21:04.209Z,0
2017-12-29T06:21:44.767Z,0
2017-12-29T06:22:25.301Z,0
2017-12-29T06:23:05.863Z,0
2017-12-29T06:23:46.412Z,0
2017-12-29T06:24:26.957Z,0
2017-12-29T06:25:07.499Z,0
2017-12-29T06:25:48.047Z,0
2017-12-29T06:26:28.597Z,0
2017-12-29T06:27:09.141Z,0
2017-12-29T06:27:49.713Z,0
2017-12-29T06:28:30.255Z,0
2017-12-29T06:29:10.812Z,0
2017-12-29T06:29:51.382Z,0
2017-12-29T06:30:31.917Z,0
2017-12-29T06:31:12.461Z,0
2017-12-29T06:31:53.000Z,0
2017-12-29T06:32:33.556Z,0
2017-12-29T06:33:14.100Z,0
2017-12-29T06:33:54.647Z,0
2017-12-29T06:34:35.193Z,0
2017-12-29T06:35:15.731Z,0
2017-12-29T06:35:56.293Z,0
2017-12-29T06:36:36.885Z,0
2017-12-29T06:37:17.410Z,0
2017-12-29T06:37:57.958Z,0
2017-12-29T06:38:38.520Z,0
2017-12-29T06:39:19.073Z,0
2017-12-29T06:39:59.603Z,0
2017-12-29T06:40:40.162Z,0
2017-12-29T06:41:20.731Z,0
2017-12-29T06:42:01.290Z,0
2017-12-29T06:42:41.848Z,0
2017-12-29T06:43:22.399Z,0
2017-12-29T06:44:02.920Z,0
2017-12-29T06:44:43.457Z,0
2017-12-29T06:45:24.026Z,0
2017-12-29T06:46:04.568Z,0
2017-12-29T06:46:45.119Z,0
2017-12-29T06:47:25.703Z,0
2017-12-29T06:48:06.257Z,0
2017-12-29T06:48:46.819Z,0
2017-12-29T06:49:27.366Z,0
2017-12-29T06:50:07.884Z,4
2017-12-29T06:50:48.433Z,4
2017-12-29T06:51:28.988Z,0
2017-12-29T06:52:09.549Z,0
2017-12-29T06:52:50.114Z,4
2017-12-29T06:53:30.665Z,4
2017-12-29T06:54:11.216Z,4
2017-12-29T06:54:51.774Z,0
2017-12-29T06:55:32.322Z,0
2017-12-29T06:56:12.852Z,4
2017-12-29T06:56:53.393Z,4
2017-12-29T06:57:33.942Z,4
2017-12-29T06:58:14.491Z,4
2017-12-29T06:58:55.054Z,4
2017-12-29T06:59:35.607Z,4
2017-12-29T07:00:16.158Z,8
2017-12-29T07:00:56.704Z,8
2017-12-29T07:01:37.253Z,8
2017-12-29T07:02:17.801Z,8
2017-12-29T07:02:58.361Z,12
2017-12-29T07:03:38.925Z,12
2017-12-29T07:04:19.472Z,12
2017-12-29T07:05:00.009Z,16
2017-12-29T07:05:40.556Z,16
2017-12-29T07:06:21.105Z,16
2017-12-29T07:07:02.526Z,24
2017-12-29T07:07:43.096Z,24
2017-12-29T07:08:23.971Z,28
2017-12-29T07:09:05.224Z,32
2017-12-29T07:09:45.981Z,36
2017-12-29T07:10:26.565Z,40
2017-12-29T07:11:07.100Z,40
2017-12-29T07:11:47.633Z,44
2017-12-29T07:12:28.161Z,48
2017-12-29T07:13:08.735Z,52
2017-12-29T07:13:49.283Z,56
2017-12-29T07:14:29.837Z,64
2017-12-29T07:15:10.390Z,72
2017-12-29T07:15:50.918Z,76
2017-12-29T07:16:31.483Z,80
2017-12-29T07:17:12.056Z,88
2017-12-29T07:17:52.607Z,92
2017-12-29T07:18:33.177Z,100
2017-12-29T07:19:13.714Z,104
2017-12-29T07:19:54.257Z,112
2017-12-29T07:20:35.407Z,120
2017-12-29T07:21:15.976Z,124
2017-12-29T07:21:56.522Z,132
2017-12-29T07:22:37.080Z,140
2017-12-29T07:23:17.622Z,148
2017-12-29T07:23:58.178Z,152
2017-12-29T07:24:38.739Z,160
2017-12-29T07:25:19.279Z,172
2017-12-29T07:25:59.825Z,180
2017-12-29T07:26:40.376Z,188
2017-12-29T07:27:20.904Z,200
2017-12-29T07:28:02.560Z,212
2017-12-29T07:28:43.096Z,220
2017-12-29T07:29:23.575Z,232
2017-12-29T07:30:04.151Z,240
2017-12-29T07:30:44.710Z,252
2017-12-29T07:31:25.270Z,268
2017-12-29T07:32:05.812Z,280
2017-12-29T07:32:46.366Z,288
2017-12-29T07:33:26.946Z,296
2017-12-29T07:34:07.760Z,304
2017-12-29T07:34:48.327Z,316
2017-12-29T07:35:28.904Z,328
2017-12-29T07:36:09.453Z,340
2017-12-29T07:36:50.011Z,356
2017-12-29T07:37:30.550Z,372
2017-12-29T07:38:11.115Z,384
2017-12-29T07:38:51.699Z,388
2017-12-29T07:39:32.192Z,404
2017-12-29T07:40:12.727Z,412
2017-12-29T07:42:34.768Z,456
2017-12-29T07:43:15.306Z,488
2017-12-29T07:43:55.861Z,508
2017-12-29T07:44:36.410Z,512
2017-12-29T07:45:16.970Z,512
2017-12-29T07:45:57.533Z,508
2017-12-29T07:46:38.076Z,508
2017-12-29T07:47:18.646Z,520
2017-12-29T07:47:59.191Z,544
2017-12-29T07:48:39.738Z,572
2017-12-29T07:49:20.326Z,592
2017-12-29T07:50:00.891Z,620
2017-12-29T07:50:41.440Z,648
2017-12-29T07:51:22.001Z,672
2017-12-29T07:52:02.565Z,676
2017-12-29T07:52:43.109Z,688
2017-12-29T07:53:23.669Z,700
2017-12-29T07:54:04.226Z,720
2017-12-29T07:54:44.789Z,736
2017-12-29T07:55:25.349Z,752
2017-12-29T07:56:05.940Z,744
2017-12-29T07:56:46.519Z,756
2017-12-29T07:57:27.076Z,772
2017-12-29T07:58:07.647Z,800
2017-12-29T07:58:48.210Z,812
2017-12-29T07:59:28.768Z,828
2017-12-29T08:00:09.331Z,852
2017-12-29T08:00:50.702Z,856
2017-12-29T08:01:31.287Z,884
2017-12-29T08:02:11.842Z,904
2017-12-29T08:02:52.416Z,920
2017-12-29T08:03:32.973Z,936
2017-12-29T08:04:13.533Z,948
2017-12-29T08:04:54.099Z,940
2017-12-29T08:05:34.717Z,944
2017-12-29T08:06:15.302Z,960
2017-12-29T08:06:55.840Z,976
2017-12-29T08:07:36.402Z,996
2017-12-29T08:08:16.957Z,1024
2017-12-29T08:08:57.585Z,1048
2017-12-29T08:09:38.077Z,1048
2017-12-29T08:10:18.680Z,1052
2017-12-29T08:10:59.234Z,1088
2017-12-29T08:11:39.803Z,1100
2017-12-29T08:12:20.366Z,1112
2017-12-29T08:13:00.918Z,1144
2017-12-29T08:13:41.467Z,1148
2017-12-29T08:14:22.027Z,1172
2017-12-29T08:15:02.586Z,1208
2017-12-29T08:15:43.202Z,1220
2017-12-29T08:16:23.756Z,1216
2017-12-29T08:17:04.343Z,1236
2017-12-29T08:17:44.894Z,1248
2017-12-29T08:18:25.453Z,1236
2017-12-29T08:19:05.998Z,1204
2017-12-29T08:19:46.548Z,1184
2017-12-29T08:20:27.099Z,1180
2017-12-29T08:21:07.633Z,1208
2017-12-29T08:21:48.201Z,1236
2017-12-29T08:22:28.770Z,1244
2017-12-29T08:23:09.321Z,1212
2017-12-29T08:23:49.866Z,1184
2017-12-29T08:24:30.430Z,1180
2017-12-29T08:25:10.975Z,1164
2017-12-29T08:25:51.537Z,1160
2017-12-29T08:26:32.103Z,1156
2017-12-29T08:27:12.669Z,1160
2017-12-29T08:27:53.241Z,1164
2017-12-29T08:28:33.809Z,1188
2017-12-29T08:29:14.378Z,1224
2017-12-29T08:29:54.983Z,1256
2017-12-29T08:30:35.538Z,1300
2017-12-29T08:31:16.095Z,1348
2017-12-29T08:31:56.662Z,1372
2017-12-29T08:32:37.211Z,1384
2017-12-29T08:33:17.757Z,1424
2017-12-29T08:33:58.308Z,1424
2017-12-29T08:34:38.919Z,1420
2017-12-29T08:35:19.398Z,1412
2017-12-29T08:35:59.951Z,1404
2017-12-29T08:36:40.502Z,1396
2017-12-29T08:37:21.072Z,1376
2017-12-29T08:38:01.632Z,1356
2017-12-29T08:38:42.204Z,1348
2017-12-29T08:39:22.774Z,1352
2017-12-29T08:40:03.333Z,1372
2017-12-29T08:40:43.897Z,1368
2017-12-29T08:41:24.465Z,1356
2017-12-29T08:42:05.040Z,1372
2017-12-29T08:42:45.591Z,1396
2017-12-29T08:43:26.138Z,1388
2017-12-29T08:44:06.700Z,1392
2017-12-29T08:44:47.237Z,1400
2017-12-29T08:45:27.824Z,1420
2017-12-29T08:46:09.226Z,1404
2017-12-29T08:46:49.763Z,1376
2017-12-29T08:47:30.294Z,1364
2017-12-29T08:48:10.811Z,1348
2017-12-29T08:48:51.352Z,1336
2017-12-29T08:49:32.024Z,1332
2017-12-29T08:50:12.603Z,1332
2017-12-29T08:50:53.119Z,1340
2017-12-29T08:51:33.589Z,1344
2017-12-29T08:52:14.132Z,1324
2017-12-29T08:52:54.653Z,1304
2017-12-29T08:53:35.215Z,1308
2017-12-29T08:54:15.764Z,1308
2017-12-29T08:54:56.339Z,1308
2017-12-29T08:55:36.881Z,1300
2017-12-29T08:56:17.447Z,1296
2017-12-29T08:56:57.989Z,1304
2017-12-29T08:57:38.546Z,1316
2017-12-29T08:58:19.116Z,1324
2017-12-29T08:58:59.670Z,1328
2017-12-29T08:59:40.736Z,1328
2017-12-29T09:00:21.316Z,1324
2017-12-29T09:01:01.941Z,1324
2017-12-29T09:01:42.481Z,1328
2017-12-29T09:02:23.055Z,1332
2017-12-29T09:03:03.554Z,1332
2017-12-29T09:03:44.135Z,1348
2017-12-29T09:04:24.723Z,1368
2017-12-29T09:05:05.264Z,1372
2017-12-29T09:05:45.809Z,1388
2017-12-29T09:06:26.329Z,1392
2017-12-29T09:07:06.890Z,1376
2017-12-29T09:07:47.443Z,1356
2017-12-29T09:08:28.007Z,1344
2017-12-29T09:09:08.762Z,1340
2017-12-29T09:09:49.359Z,1336
2017-12-29T09:10:29.949Z,1344
2017-12-29T09:11:10.451Z,1352
2017-12-29T09:11:50.971Z,1360
2017-12-29T09:12:31.531Z,1388
2017-12-29T09:13:12.047Z,1380
2017-12-29T09:13:52.579Z,1356
2017-12-29T09:14:33.132Z,1360
2017-12-29T09:15:13.672Z,1356
2017-12-29T09:15:54.246Z,1320
2017-12-29T09:16:34.789Z,1328
2017-12-29T09:17:15.361Z,1360
2017-12-29T09:17:55.898Z,1368
2017-12-29T09:18:36.422Z,1360
2017-12-29T09:19:16.976Z,1368
2017-12-29T09:19:57.505Z,1368
2017-12-29T09:20:38.036Z,1372
2017-12-29T09:21:18.555Z,1372
2017-12-29T09:21:59.144Z,1376
2017-12-29T09:22:39.760Z,1376
2017-12-29T09:23:20.302Z,1376
2017-12-29T09:24:00.910Z,1376
2017-12-29T09:24:41.408Z,1380
2017-12-29T09:25:21.963Z,1380
2017-12-29T09:26:04.487Z,1380
2017-12-29T09:26:45.004Z,1380
2017-12-29T09:27:25.563Z,1384
2017-12-29T09:28:06.094Z,1388
2017-12-29T09:28:46.610Z,1388
2017-12-29T09:29:27.152Z,1392
2017-12-29T09:30:07.688Z,1392
2017-12-29T09:30:48.232Z,1396
2017-12-29T09:31:28.764Z,1400
2017-12-29T09:32:09.320Z,1396
2017-12-29T09:32:49.854Z,1396
2017-12-29T09:33:30.415Z,1404
2017-12-29T09:34:11.012Z,1404
2017-12-29T09:34:51.552Z,1404
2017-12-29T09:35:32.128Z,1404
2017-12-29T09:36:12.676Z,1408
2017-12-29T09:36:53.209Z,1412
2017-12-29T09:37:33.759Z,1412
2017-12-29T09:38:14.316Z,1412
2017-12-29T09:38:54.880Z,1416
2017-12-29T09:39:35.462Z,1420
2017-12-29T09:40:15.945Z,1420
2017-12-29T09:40:56.463Z,1420
2017-12-29T09:41:37.029Z,1424
2017-12-29T09:42:17.547Z,1424
2017-12-29T09:42:58.078Z,1428
2017-12-29T09:43:38.593Z,1428
2017-12-29T09:44:19.095Z,1432
2017-12-29T09:44:59.642Z,1432
2017-12-29T09:45:40.192Z,1432
2017-12-29T09:46:20.724Z,1436